Time;durP1;ratioP1;P1;durP2;ratioP2;P2;SDS_P1;SDS_P2;PMS_P1;PMS_P2;Temp;Humidity;BMP_temperature;BMP_pressure;BME280_temperature;BME280_humidity;BME280_pressure;Samples;Min_cycle;Max_cycle;Signal;HPM_P1;HPM_P2
2022/04/08 00:01:49;;;;;;;1.48;0.88;;;;;;;18.99;38.79;99599.03;5095655;28;20054;-64
2022/04/08 00:04:15;;;;;;;1.20;0.68;;;;;;;18.98;38.43;99599.34;5114564;28;20345;-64
2022/04/08 00:06:40;;;;;;;0.75;0.68;;;;;;;18.97;38.48;99609.53;5114316;28;20051;-64
2022/04/08 00:09:05;;;;;;;1.52;0.80;;;;;;;18.98;38.51;99616.63;5114020;28;20042;-64
2022/04/08 00:11:31;;;;;;;0.85;0.68;;;;;;;18.98;38.32;99618.59;5114011;28;20542;-65
2022/04/08 00:13:56;;;;;;;1.05;0.60;;;;;;;18.97;38.43;99615.03;5114249;28;20073;-64
2022/04/08 00:16:22;;;;;;;1.80;0.85;;;;;;;18.97;38.49;99623.28;5095774;28;20032;-65
2022/04/08 00:18:48;;;;;;;1.45;0.70;;;;;;;18.96;38.29;99631.81;5113944;28;20039;-64
2022/04/08 00:21:14;;;;;;;1.02;0.88;;;;;;;18.96;38.55;99637.31;5113770;28;20031;-65
2022/04/08 00:23:39;;;;;;;1.48;0.70;;;;;;;18.96;38.35;99645.56;5117165;28;20372;-65
2022/04/08 00:26:05;;;;;;;2.13;0.88;;;;;;;18.95;38.38;99658.47;5118250;28;20412;-64
2022/04/08 00:28:31;;;;;;;1.42;0.80;;;;;;;18.94;38.24;99648.59;5118042;28;20084;-64
2022/04/08 00:30:57;;;;;;;2.05;1.00;;;;;;;18.95;38.41;99652.16;5099040;28;20030;-64
2022/04/08 00:33:22;;;;;;;0.80;0.60;;;;;;;18.94;38.46;99643.09;5117575;28;20165;-64
2022/04/08 00:35:47;;;;;;;0.85;0.80;;;;;;;18.95;38.35;99641.19;5117608;28;20039;-64
2022/04/08 00:38:13;;;;;;;2.00;0.90;;;;;;;18.94;38.44;99648.59;5117554;28;20455;-64
2022/04/08 00:40:38;;;;;;;2.05;0.80;;;;;;;18.93;38.38;99649.72;5099347;28;20035;-64
2022/04/08 00:43:12;;;;;;;1.02;0.70;;;;;;;18.93;38.45;99655.22;5100026;28;20474;-64
2022/04/08 00:45:37;;;;;;;1.00;0.80;;;;;;;18.93;38.29;99663.47;5117390;28;20038;-64
2022/04/08 00:48:07;;;;;;;1.40;0.88;;;;;;;18.92;38.49;99661.81;5117347;28;20031;-64
2022/04/08 00:50:37;;;;;;;1.83;1.00;;;;;;;18.92;38.61;99670.06;5116986;28;20032;-64
2022/04/08 00:53:02;;;;;;;1.15;0.75;;;;;;;18.91;38.32;99673.91;5099676;28;20059;-64
2022/04/08 00:55:28;;;;;;;1.20;0.82;;;;;;;18.91;38.31;99680.25;5117389;28;20063;-65
2022/04/08 00:57:54;;;;;;;1.25;0.73;;;;;;;18.92;38.59;99681.06;5116898;28;20027;-64
2022/04/08 01:00:22;;;;;;;1.10;0.82;;;;;;;18.91;38.35;99679.41;5117108;28;20042;-64
2022/04/08 01:02:48;;;;;;;1.50;0.82;;;;;;;18.91;38.55;99684.91;5098974;28;20056;-65
2022/04/08 01:05:13;;;;;;;1.20;0.88;;;;;;;18.90;38.48;99684.09;5117310;28;20042;-64
2022/04/08 01:07:39;;;;;;;1.20;0.93;;;;;;;18.90;38.43;99689.59;5117007;28;20087;-65
2022/04/08 01:10:05;;;;;;;1.63;0.80;;;;;;;18.91;38.50;99701.41;5116942;28;20031;-65
2022/04/08 01:12:30;;;;;;;1.77;0.93;;;;;;;18.90;38.36;99699.78;5117310;28;20035;-65
2022/04/08 01:14:59;;;;;;;1.73;0.93;;;;;;;18.90;38.39;99710.78;5098880;28;20511;-65
2022/04/08 01:17:25;;;;;;;1.17;0.82;;;;;;;18.89;38.35;99707.19;5117583;28;20024;-65
2022/04/08 01:19:51;;;;;;;2.65;0.95;;;;;;;18.90;38.39;99711.59;5098367;28;20042;-65
2022/04/08 01:22:19;;;;;;;0.95;0.70;;;;;;;18.89;38.47;99706.41;5116636;28;20395;-64
2022/04/08 01:24:47;;;;;;;1.23;0.85;;;;;;;18.89;38.46;99715.44;5117155;28;20030;-64
2022/04/08 01:27:14;;;;;;;1.17;0.75;;;;;;;18.88;38.40;99719.34;5117286;28;20031;-64
2022/04/08 01:29:39;;;;;;;0.82;0.68;;;;;;;18.88;38.34;99716.59;5116899;28;20062;-64
2022/04/08 01:32:05;;;;;;;3.10;0.98;;;;;;;18.88;38.47;99715.75;5116433;28;20075;-64
2022/04/08 01:34:30;;;;;;;1.23;0.70;;;;;;;18.88;38.45;99722.06;5115829;28;20031;-64
2022/04/08 01:36:56;;;;;;;1.35;0.80;;;;;;;18.88;38.44;99715.75;5080955;28;20027;-64
2022/04/08 01:39:21;;;;;;;1.38;0.80;;;;;;;18.86;38.27;99727.03;5081326;28;20039;-64
2022/04/08 01:41:46;;;;;;;1.67;0.90;;;;;;;18.86;38.41;99727.03;5116818;28;20034;-64
2022/04/08 01:44:12;;;;;;;1.38;0.75;;;;;;;18.87;38.47;99725.13;5116553;28;20032;-64
2022/04/08 01:46:37;;;;;;;1.50;0.77;;;;;;;18.86;38.47;99726.22;5098637;28;20122;-64
2022/04/08 01:49:03;;;;;;;1.38;0.85;;;;;;;18.86;38.39;99723.47;5116444;28;20100;-64
2022/04/08 01:51:28;;;;;;;1.80;0.90;;;;;;;18.86;38.35;99720.72;5116390;28;20042;-64
2022/04/08 01:53:53;;;;;;;1.45;0.90;;;;;;;18.85;38.34;99730.88;5116075;28;20036;-64
2022/04/08 01:56:18;;;;;;;1.25;0.80;;;;;;;18.85;38.39;99730.88;5115899;28;20120;-64
2022/04/08 01:58:44;;;;;;;1.52;0.60;;;;;;;18.85;38.20;99733.63;5097992;28;20464;-64
2022/04/08 02:01:09;;;;;;;1.75;0.95;;;;;;;18.85;38.41;99736.38;5115585;28;20035;-64
2022/04/08 02:03:35;;;;;;;1.17;0.88;;;;;;;18.85;38.40;99741.03;5116537;28;20093;-64
2022/04/08 02:06:00;;;;;;;2.53;1.15;;;;;;;18.84;38.41;99743.00;5116083;28;20036;-64
2022/04/08 02:08:26;;;;;;;1.17;0.88;;;;;;;18.85;38.41;99746.53;5116386;28;20119;-64
2022/04/08 02:10:53;;;;;;;1.65;1.00;;;;;;;18.84;38.46;99748.47;5115498;28;20028;-64
2022/04/08 02:13:19;;;;;;;1.75;1.00;;;;;;;18.84;38.52;99753.16;5097892;28;20042;-64
2022/04/08 02:15:46;;;;;;;1.95;0.88;;;;;;;18.85;38.42;99754.78;5115361;28;20035;-64
2022/04/08 02:18:12;;;;;;;1.20;0.60;;;;;;;18.85;38.55;99752.03;5116078;28;20046;-64
2022/04/08 02:20:38;;;;;;;1.60;0.82;;;;;;;18.84;38.56;99750.41;5115539;28;20036;-64
2022/04/08 02:23:04;;;;;;;1.85;0.93;;;;;;;18.84;38.42;99747.66;5115446;28;20050;-64
2022/04/08 02:25:30;;;;;;;1.65;1.05;;;;;;;18.84;38.39;99750.41;5115400;28;20042;-64
2022/04/08 02:27:56;;;;;;;2.05;0.90;;;;;;;18.84;38.56;99753.16;5080780;28;20027;-64
2022/04/08 02:30:22;;;;;;;2.13;0.80;;;;;;;18.84;38.54;99758.63;5115075;28;20035;-64
2022/04/08 02:32:47;;;;;;;1.83;0.80;;;;;;;18.83;38.54;99765.28;5115057;28;20184;-64
2022/04/08 02:35:12;;;;;;;1.17;0.70;;;;;;;18.83;38.41;99765.28;5115024;28;20444;-64
2022/04/08 02:37:39;;;;;;;2.17;0.85;;;;;;;18.82;38.63;99767.19;5115772;28;20035;-64
2022/04/08 02:40:05;;;;;;;1.60;0.88;;;;;;;18.83;38.53;99760.59;5115123;28;20027;-64
2022/04/08 02:42:31;;;;;;;1.50;0.80;;;;;;;18.82;38.46;99758.13;5115653;28;20023;-64
2022/04/08 02:44:59;;;;;;;1.95;0.95;;;;;;;18.82;38.49;99769.13;5114752;28;20039;-64
2022/04/08 02:47:25;;;;;;;2.45;0.90;;;;;;;18.82;38.52;99769.94;5115033;28;20023;-65
2022/04/08 02:49:50;;;;;;;1.05;0.80;;;;;;;18.82;38.49;99769.13;5096803;28;20039;-65
2022/04/08 02:52:15;;;;;;;0.82;0.73;;;;;;;18.81;38.53;99773.81;5114957;28;20110;-64
2022/04/08 02:54:41;;;;;;;1.30;0.80;;;;;;;18.82;38.47;99769.94;5114915;28;20425;-64
2022/04/08 02:57:06;;;;;;;1.55;0.93;;;;;;;18.80;38.61;99774.91;5114554;28;20413;-64
2022/04/08 02:59:32;;;;;;;1.95;0.90;;;;;;;18.80;38.73;99777.66;5114540;28;20114;-64
2022/04/08 03:01:57;;;;;;;2.25;1.00;;;;;;;18.80;38.58;99771.38;5114201;28;20496;-64
2022/04/08 03:04:23;;;;;;;1.92;1.08;;;;;;;18.79;38.54;99776.03;5115050;28;20055;-64
2022/04/08 03:06:48;;;;;;;1.92;1.20;;;;;;;18.80;38.47;99780.41;5114940;28;20416;-64
2022/04/08 03:09:14;;;;;;;1.20;0.98;;;;;;;18.79;38.68;99775.22;5114682;28;20459;-64
2022/04/08 03:11:39;;;;;;;2.63;0.88;;;;;;;18.80;38.67;99777.66;5115164;28;20035;-64
2022/04/08 03:14:05;;;;;;;0.63;0.63;;;;;;;18.79;38.50;99778.78;5114622;28;20039;-64
2022/04/08 03:16:31;;;;;;;2.40;1.02;;;;;;;18.79;38.62;99778.78;5114585;28;20035;-64
2022/04/08 03:18:56;;;;;;;1.33;0.85;;;;;;;18.79;38.52;99778.78;5115072;28;20126;-64
2022/04/08 03:21:22;;;;;;;1.35;1.15;;;;;;;18.79;38.48;99778.78;5114450;28;20024;-64
2022/04/08 03:23:48;;;;;;;0.82;0.73;;;;;;;18.78;38.49;99779.91;5114433;28;20051;-65
2022/04/08 03:26:14;;;;;;;0.90;0.70;;;;;;;18.79;38.54;99780.72;5114290;28;20035;-64
2022/04/08 03:28:39;;;;;;;0.85;0.63;;;;;;;18.79;38.61;99783.47;5114138;28;20034;-65
2022/04/08 03:31:04;;;;;;;1.75;0.85;;;;;;;18.77;38.46;99781.81;5114375;28;20434;-64
2022/04/08 03:33:30;;;;;;;1.00;0.80;;;;;;;18.78;38.49;99793.63;5096031;28;20055;-64
2022/04/08 03:35:55;;;;;;;2.13;1.10;;;;;;;18.79;38.44;99799.94;5114598;28;20023;-64
2022/04/08 03:38:21;;;;;;;0.93;0.82;;;;;;;18.77;38.55;99795.56;5114538;28;20081;-64
2022/04/08 03:40:48;;;;;;;1.40;0.80;;;;;;;18.76;38.75;99799.44;5114263;28;20039;-64
2022/04/08 03:43:13;;;;;;;2.35;1.00;;;;;;;18.76;38.53;99796.69;5114362;28;20054;-64
2022/04/08 03:45:39;;;;;;;0.98;0.70;;;;;;;18.76;38.62;99802.19;5114238;28;20456;-64
2022/04/08 03:48:06;;;;;;;2.17;0.80;;;;;;;18.75;38.56;99794.25;5114206;28;20031;-64
2022/04/08 03:50:32;;;;;;;1.58;0.77;;;;;;;18.75;38.59;99797.78;5114133;28;20456;-65
2022/04/08 03:52:57;;;;;;;0.90;0.70;;;;;;;18.76;38.53;99815.09;5113891;28;20080;-65
2022/04/08 03:55:22;;;;;;;0.88;0.63;;;;;;;18.75;38.65;99803.28;5114140;28;20028;-64
2022/04/08 03:57:48;;;;;;;1.15;0.77;;;;;;;18.75;38.51;99805.22;5098254;28;20132;-65
2022/04/08 04:00:14;;;;;;;0.95;0.82;;;;;;;18.74;38.53;99812.63;5100064;28;20081;-65
2022/04/08 04:02:39;;;;;;;1.63;0.80;;;;;;;18.74;38.63;99812.63;5118382;28;20052;-64
2022/04/08 04:05:05;;;;;;;1.42;0.90;;;;;;;18.74;38.53;99811.81;5118250;28;20039;-65
2022/04/08 04:07:34;;;;;;;1.75;0.82;;;;;;;18.73;38.76;99811.00;5099859;28;20031;-64
2022/04/08 04:09:59;;;;;;;0.90;0.82;;;;;;;18.73;38.53;99807.44;5099847;28;20114;-65
2022/04/08 04:12:28;;;;;;;1.63;0.98;;;;;;;18.73;38.61;99801.94;5099785;28;20130;-64
2022/04/08 04:14:55;;;;;;;0.80;0.60;;;;;;;18.73;38.63;99810.19;5117768;28;20107;-64
2022/04/08 04:17:22;;;;;;;1.80;1.05;;;;;;;18.73;38.53;99800.03;5117930;28;20081;-64
2022/04/08 04:19:47;;;;;;;1.13;0.80;;;;;;;18.72;38.47;99797.53;5118158;28;20375;-64
2022/04/08 04:22:13;;;;;;;1.33;0.88;;;;;;;18.72;38.54;99805.78;5117937;28;20081;-64
2022/04/08 04:24:38;;;;;;;2.00;0.73;;;;;;;18.71;38.54;99802.22;5118356;28;20039;-64
2022/04/08 04:27:04;;;;;;;1.73;0.90;;;;;;;18.71;38.71;99794.00;5117754;28;20027;-64
2022/04/08 04:29:29;;;;;;;1.08;0.65;;;;;;;18.71;38.48;99791.25;5118057;28;20055;-64
2022/04/08 04:31:56;;;;;;;1.75;0.90;;;;;;;18.71;38.56;99795.94;5117974;28;20073;-64
2022/04/08 04:34:24;;;;;;;1.40;1.00;;;;;;;18.70;38.55;99797.03;5117610;28;20106;-64
2022/04/08 04:36:49;;;;;;;1.55;0.80;;;;;;;18.70;38.29;99797.03;5099378;28;20031;-65
2022/04/08 04:39:15;;;;;;;1.15;0.70;;;;;;;18.70;38.56;99799.78;5117308;28;20114;-64
2022/04/08 04:41:40;;;;;;;0.90;0.50;;;;;;;18.70;38.52;99811.59;5117481;28;20023;-64
2022/04/08 04:44:06;;;;;;;1.20;0.77;;;;;;;18.70;38.51;99797.84;5082562;28;20463;-64
2022/04/08 04:46:31;;;;;;;1.02;0.73;;;;;;;18.69;38.42;99807.22;5117140;28;20028;-64
2022/04/08 04:48:56;;;;;;;1.30;0.80;;;;;;;18.69;38.56;99806.38;5117136;28;20036;-64
2022/04/08 04:51:22;;;;;;;1.30;0.77;;;;;;;18.69;38.45;99809.13;5117311;28;20050;-65
2022/04/08 04:53:47;;;;;;;0.90;0.60;;;;;;;18.69;38.50;99809.13;5099097;28;20126;-65
2022/04/08 04:56:13;;;;;;;0.98;0.68;;;;;;;18.69;38.43;99803.63;5117189;28;20114;-64
2022/04/08 04:58:38;;;;;;;1.83;0.80;;;;;;;18.68;38.41;99811.06;5082051;28;20379;-64
2022/04/08 05:01:03;;;;;;;1.20;0.68;;;;;;;18.68;38.67;99805.56;5117091;28;20036;-63
2022/04/08 05:03:29;;;;;;;1.83;0.82;;;;;;;18.67;38.69;99806.69;5098348;28;20047;-67
2022/04/08 05:05:54;;;;;;;1.98;1.02;;;;;;;18.62;37.13;99798.53;5117583;28;20558;-68
2022/04/08 05:08:23;;;;;;;2.35;1.45;;;;;;;18.42;36.40;99791.34;5116796;28;20387;-68
2022/04/08 05:10:48;;;;;;;2.13;1.50;;;;;;;18.18;36.02;99792.16;5117213;28;20036;-68
2022/04/08 05:13:14;;;;;;;3.05;1.75;;;;;;;17.95;36.16;99795.72;5116943;28;20047;-68
2022/04/08 05:15:42;;;;;;;1.98;1.63;;;;;;;17.73;36.47;99802.50;5116828;28;20177;-68
2022/04/08 05:18:09;;;;;;;2.30;1.75;;;;;;;17.53;36.62;99795.28;5116775;28;20492;-66
2022/04/08 05:20:35;;;;;;;3.30;1.73;;;;;;;17.35;36.65;99794.88;5116758;28;20042;-65
2022/04/08 05:23:00;;;;;;;2.53;1.52;;;;;;;17.26;37.14;99793.84;5116647;28;20031;-64
2022/04/08 05:25:26;;;;;;;2.10;1.65;;;;;;;17.31;37.66;99802.00;5098476;28;20505;-64
2022/04/08 05:27:53;;;;;;;3.55;1.50;;;;;;;17.39;37.65;99797.88;5098297;28;20059;-65
2022/04/08 05:30:19;;;;;;;1.65;1.33;;;;;;;17.51;37.67;99801.03;5098022;28;20028;-64
2022/04/08 05:32:48;;;;;;;2.08;1.30;;;;;;;17.62;38.09;99793.53;5081722;28;20120;-64
2022/04/08 05:35:15;;;;;;;1.88;1.35;;;;;;;17.73;37.82;99790.69;5116469;28;20032;-65
2022/04/08 05:37:42;;;;;;;1.38;1.23;;;;;;;17.83;37.92;99791.44;5116915;28;20020;-64
2022/04/08 05:40:10;;;;;;;1.55;1.10;;;;;;;17.92;38.16;99786.13;5116335;28;20039;-65
2022/04/08 05:42:36;;;;;;;2.20;1.20;;;;;;;18.00;39.70;99787.44;5116517;28;20077;-66
2022/04/08 05:45:01;;;;;;;2.10;1.55;;;;;;;18.06;38.38;99786.28;5097997;28;20031;-67
2022/04/08 05:47:28;;;;;;;2.58;1.50;;;;;;;18.12;39.50;99784.31;5097726;28;20445;-66
2022/04/08 05:49:58;;;;;;;4.45;1.60;;;;;;;18.15;39.19;99794.69;5116225;28;20034;-66
2022/04/08 05:52:24;;;;;;;2.97;1.60;;;;;;;18.18;39.35;99783.94;5116741;28;20036;-66
2022/04/08 05:54:49;;;;;;;2.33;1.55;;;;;;;18.20;39.16;99773.50;5116111;28;20088;-66
2022/04/08 05:57:17;;;;;;;2.85;1.40;;;;;;;18.26;39.29;99774.22;5115996;28;20038;-65
2022/04/08 05:59:42;;;;;;;3.17;1.50;;;;;;;18.29;39.35;99772.84;5115661;28;20027;-66
2022/04/08 06:02:08;;;;;;;3.00;1.50;;;;;;;18.32;39.31;99773.09;5116021;28;20380;-65
2022/04/08 06:04:33;;;;;;;3.08;1.25;;;;;;;18.36;39.31;99773.31;5098277;28;20027;-66
2022/04/08 06:06:59;;;;;;;1.60;1.40;;;;;;;18.40;39.14;99780.66;5115829;28;20032;-66
2022/04/08 06:09:24;;;;;;;2.97;1.33;;;;;;;18.41;39.62;99768.56;5097539;28;20047;-67
2022/04/08 06:11:49;;;;;;;1.70;1.40;;;;;;;18.45;39.19;99760.53;5081026;28;20059;-66
2022/04/08 06:14:15;;;;;;;1.88;1.30;;;;;;;18.49;39.09;99771.78;5115714;28;20531;-66
2022/04/08 06:16:42;;;;;;;1.20;1.10;;;;;;;18.50;39.23;99768.72;5097774;28;20040;-65
2022/04/08 06:19:07;;;;;;;2.08;1.20;;;;;;;18.52;39.17;99763.75;5115613;27;20042;-66
2022/04/08 06:21:33;;;;;;;1.30;1.00;;;;;;;18.55;39.53;99770.59;5114860;28;20114;-66
2022/04/08 06:23:58;;;;;;;2.28;1.40;;;;;;;18.56;39.40;99774.97;5115497;28;20588;-66
2022/04/08 06:26:24;;;;;;;1.95;1.20;;;;;;;18.57;39.19;99776.59;5080535;28;20027;-66
2022/04/08 06:28:49;;;;;;;2.03;1.25;;;;;;;18.59;39.08;99774.38;5115408;28;20467;-66
2022/04/08 06:31:14;;;;;;;1.35;1.13;;;;;;;18.61;39.17;99779.59;5115126;28;20028;-66
2022/04/08 06:33:41;;;;;;;2.30;1.20;;;;;;;18.62;39.16;99773.78;5115331;28;20031;-66
2022/04/08 06:36:07;;;;;;;1.55;1.35;;;;;;;18.63;39.31;99783.69;5115328;28;20032;-66
2022/04/08 06:38:32;;;;;;;2.40;1.30;;;;;;;18.63;38.97;99769.94;5097044;28;20046;-66
2022/04/08 06:40:58;;;;;;;2.40;1.30;;;;;;;18.64;39.13;99771.56;5115224;28;20059;-66
2022/04/08 06:43:23;;;;;;;1.80;1.00;;;;;;;18.65;39.16;99762.22;5096718;28;20058;-66
2022/04/08 06:47:46;;;;;;;3.70;2.55;;;;;;;14.92;40.07;99763.00;4285490;27;24859199;-95
2022/04/08 06:50:26;;;;;;;3.25;2.55;;;;;;;11.49;47.64;99773.31;5135246;27;20042;-94
2022/04/08 06:53:07;;;;;;;3.70;2.80;;;;;;;9.26;54.98;99783.47;5134989;27;20027;-95
2022/04/08 06:55:42;;;;;;;4.47;2.80;;;;;;;8.04;58.93;99777.16;5135105;27;20379;-95
2022/04/08 06:58:31;;;;;;;;;;;;;;;;;;;;;
2022/04/08 07:01:30;;;;;;;3.38;2.70;;;;;;;6.50;63.19;99777.56;5121848;27;20031;-95
2022/04/08 07:04:10;;;;;;;7.95;3.53;;;;;;;6.13;67.01;99777.31;5119349;27;20027;-95
2022/04/08 07:07:08;;;;;;;;;;;;;;;;;;;;;
2022/04/08 07:09:58;;;;;;;4.70;2.92;;;;;;;5.85;66.69;99794.53;5139741;27;20069;-95
2022/04/08 07:12:35;;;;;;;8.77;2.90;;;;;;;5.79;66.07;99795.38;5121271;27;20129;-95
2022/04/08 07:15:01;;;;;;;6.93;3.70;;;;;;;5.69;70.72;99787.72;5134783;27;20049;-95
2022/04/08 07:17:32;;;;;;;7.68;3.25;;;;;;;5.69;69.49;99781.53;5134311;27;20113;-95
2022/04/08 07:20:00;;;;;;;6.65;3.20;;;;;;;5.67;69.04;99781.75;5135313;27;20026;-96
2022/04/08 07:22:32;;;;;;;8.20;3.70;;;;;;;5.65;68.82;99778.41;5134307;27;20042;-95
2022/04/08 07:25:03;;;;;;;5.95;3.22;;;;;;;5.67;68.67;99778.19;5134076;27;20102;-95
2022/04/08 07:28:03;;;;;;;5.32;3.10;;;;;;;5.70;67.52;99770.56;5134044;27;20045;-95
2022/04/08 07:30:35;;;;;;;8.85;3.33;;;;;;;5.76;69.38;99774.28;5119865;27;20080;-95
2022/04/08 07:33:04;;;;;;;5.32;3.22;;;;;;;5.74;70.22;99769.09;5134650;27;20390;-95
2022/04/08 07:36:17;;;;;;;6.43;3.10;;;;;;;5.76;71.38;99766.19;5117208;27;20035;-96
2022/04/08 07:38:59;;;;;;;4.50;3.03;;;;;;;5.84;68.88;99774.03;5121346;27;20115;-95
2022/04/08 07:41:37;;;;;;;6.10;3.55;;;;;;;5.90;70.37;99766.97;5119167;27;20395;-96
2022/04/08 07:44:24;;;;;;;6.75;3.20;;;;;;;5.97;69.83;99774.03;5134571;27;20486;-96
2022/04/08 07:46:58;;;;;;;5.38;3.05;;;;;;;6.08;69.85;99774.41;5117888;27;20047;-96
2022/04/08 07:49:38;;;;;;;5.85;3.40;;;;;;;6.08;68.84;99774.41;5117915;27;20046;-95
2022/04/08 07:52:27;;;;;;;7.32;3.72;;;;;;;6.18;69.10;99776.66;5134598;27;20027;-96
2022/04/08 07:57:57;;;;;;;8.38;3.40;;;;;;;6.25;69.69;99754.03;5145555;27;20035;-95
2022/04/08 08:00:34;;;;;;;6.78;3.55;;;;;;;6.28;69.09;99759.00;5120709;27;20030;-95
2022/04/08 08:06:07;;;;;;;7.95;3.60;;;;;;;6.32;70.42;99760.22;5128034;27;20128;-95
2022/04/08 08:09:08;;;;;;;6.22;3.28;;;;;;;6.44;68.80;99759.56;5089586;27;20038;-95
2022/04/08 08:12:00;;;;;;;6.43;3.30;;;;;;;6.41;70.08;99751.91;5109718;27;20046;-95
2022/04/08 08:14:36;;;;;;;8.25;3.53;;;;;;;6.54;67.37;99754.53;5118976;27;20035;-95
2022/04/08 08:17:02;;;;;;;7.70;3.58;;;;;;;6.57;67.06;99753.25;5120601;27;20031;-95
2022/04/08 08:19:30;;;;;;;6.35;3.72;;;;;;;6.53;68.01;99760.16;5119928;27;20075;-95
2022/04/08 08:22:22;;;;;;;6.97;3.55;;;;;;;6.63;66.91;99757.81;5102511;27;20391;-96
2022/04/08 08:25:10;;;;;;;7.47;3.58;;;;;;;6.64;67.20;99760.28;5116301;27;20049;-96
2022/04/08 08:27:45;;;;;;;6.95;3.35;;;;;;;6.74;66.38;99758.97;5103474;27;20042;-93
2022/04/08 08:30:37;;;;;;;5.47;3.40;;;;;;;6.71;66.44;99751.34;5119467;27;20027;-93
2022/04/08 08:33:25;;;;;;;7.07;3.30;;;;;;;6.86;67.39;99749.16;5120026;27;20034;-94
2022/04/08 08:36:43;;;;;;;4.20;3.05;;;;;;;7.03;64.94;99738.66;5106731;27;20035;-93
2022/04/08 08:39:26;;;;;;;5.82;3.05;;;;;;;7.08;65.69;99729.91;5063332;27;20031;-96
2022/04/08 08:41:55;;;;;;;5.97;3.47;;;;;;;7.18;64.66;99722.97;5119339;27;20027;-96
2022/04/08 08:44:33;;;;;;;7.60;3.50;;;;;;;7.27;63.48;99722.69;5102870;27;20031;-96
2022/04/08 08:47:07;;;;;;;5.72;3.70;;;;;;;7.30;62.67;99706.06;5120266;27;20498;-96
2022/04/08 08:49:44;;;;;;;5.45;3.10;;;;;;;7.27;62.62;99706.53;5118852;27;20384;-96
2022/04/08 08:52:22;;;;;;;4.95;2.60;;;;;;;7.22;62.12;99703.63;5104984;27;20510;-95
2022/04/08 08:58:24;;;;;;;;;;;;;;;;;;;;;
2022/04/08 09:00:59;;;;;;;5.32;3.05;;;;;;;7.87;59.85;99695.09;5124082;27;20039;-95
2022/04/08 09:03:43;;;;;;;;;;;;;;;;;;;;;
2022/04/08 09:17:45;;;;;;;;;;;;;;;;;;;;;
2022/04/08 10:07:43;;;;;;;;;;;;;;;;;;;;;
2022/04/08 11:12:03;;;;;;;4.95;2.60;;;;;;;8.20;56.76;99640.63;4918330;28;20084;-94
2022/04/08 11:15:19;;;;;;;7.90;3.10;;;;;;;8.58;57.34;99639.47;4927532;28;20091;-94
2022/04/08 11:21:22;;;;;;;6.10;2.72;;;;;;;8.92;55.65;99637.06;5052146;28;20041;-96
2022/04/08 11:24:52;;;;;;;5.50;2.75;;;;;;;8.72;55.28;99641.97;5034687;28;20039;-95
2022/04/08 11:30:42;;;;;;;5.70;2.75;;;;;;;8.69;55.53;99628.94;5042666;28;20040;-95
2022/04/08 11:52:18;;;;;;;4.43;2.92;;;;;;;10.08;50.17;99586.69;4936810;29;20039;-94
2022/04/08 11:55:03;;;;;;;;;;;;;;;;;;;;;
2022/04/08 11:58:47;;;;;;;;;;;;;;;;;;;;;
2022/04/08 12:05:15;;;;;;;;;;;;;;;;;;;;;
2022/04/08 12:08:30;;;;;;;;;;;;;;;;;;;;;
2022/04/08 12:11:38;;;;;;;5.03;2.30;;;;;;;9.78;50.01;99579.63;5071192;28;20059;-94
2022/04/08 12:14:48;;;;;;;5.72;2.60;;;;;;;9.72;49.79;99571.66;4995005;28;20513;-94
2022/04/08 12:17:50;;;;;;;6.85;2.80;;;;;;;9.91;50.11;99562.25;4976713;28;20050;-94
2022/04/08 12:24:35;;;;;;;4.50;2.28;;;;;;;10.56;47.89;99565.59;4975706;28;20186;-94
2022/04/08 12:31:23;;;;;;;4.45;2.58;;;;;;;9.88;49.08;99568.16;4892024;29;20512;-94
2022/04/08 12:34:34;;;;;;;4.22;2.90;;;;;;;9.51;49.67;99560.41;4935172;29;20063;-94
2022/04/08 12:38:05;;;;;;;;;;;;;;;;;;;;;
2022/04/08 12:41:01;;;;;;;3.88;2.65;;;;;;;9.61;49.22;99566.03;5033551;28;20490;-94
2022/04/08 12:44:15;;;;;;;;;;;;;;;;;;;;;
2022/04/08 12:47:47;;;;;;;3.83;2.83;;;;;;;9.72;48.39;99553.50;5082586;28;20494;-94
2022/04/08 13:08:30;;;;;;;6.45;3.50;;;;;;;10.03;48.19;99556.78;4936304;29;20067;-95
2022/04/08 13:12:04;;;;;;;;;;;;;;;;;;;;;
2022/04/08 13:15:13;;;;;;;4.13;2.88;;;;;;;10.47;48.49;99554.31;5071211;28;20035;-95
2022/04/08 13:17:55;;;;;;;4.00;3.20;;;;;;;11.44;45.87;99545.09;5071342;28;20040;-96
2022/04/08 13:20:38;;;;;;;5.40;3.20;;;;;;;12.08;43.87;99549.91;5082465;28;20166;-95
2022/04/08 13:27:32;;;;;;;;;;;;;;;;;;;;;
2022/04/08 13:30:12;;;;;;;5.95;3.00;;;;;;;15.60;37.66;99535.00;5111787;28;20328;-95
2022/04/08 13:33:07;;;;;;;4.13;2.75;;;;;;;15.34;37.50;99528.81;5081155;28;20067;-95
2022/04/08 13:35:52;;;;;;;3.78;2.60;;;;;;;14.57;38.82;99537.97;5081995;28;20047;-95
2022/04/08 13:38:20;;;;;;;5.05;2.90;;;;;;;14.10;39.61;99536.31;5098536;28;20493;-95
2022/04/08 13:41:04;;;;;;;6.13;2.88;;;;;;;13.19;40.86;99549.38;5097087;28;20081;-95
2022/04/08 13:43:41;;;;;;;3.38;2.60;;;;;;;12.40;41.67;99552.66;5089293;28;20039;-95
2022/04/08 13:46:09;;;;;;;5.72;2.97;;;;;;;11.74;43.76;99536.50;5097854;28;20388;-95
2022/04/08 13:52:31;;;;;;;;;;;;;;;;;;;;;
2022/04/08 13:55:09;;;;;;;4.22;2.35;;;;;;;12.00;45.35;99542.22;5116440;28;20625;-95
2022/04/08 13:58:08;;;;;;;4.55;2.70;;;;;;;12.46;42.73;99538.00;5085928;28;20527;-95
2022/04/08 14:00:48;;;;;;;4.32;2.50;;;;;;;12.90;41.88;99534.25;5092630;28;20089;-95
2022/04/08 14:03:19;;;;;;;5.60;2.30;;;;;;;13.50;40.96;99534.00;5096851;28;20067;-95
2022/04/08 14:06:13;;;;;;;5.90;2.15;;;;;;;14.19;40.39;99524.63;5092217;28;20089;-95
2022/04/08 14:08:49;;;;;;;5.57;2.20;;;;;;;14.72;37.37;99529.81;5093387;28;20035;-96
2022/04/08 14:11:23;;;;;;;3.90;1.83;;;;;;;14.67;36.57;99534.47;5097701;28;20024;-95
2022/04/08 14:14:26;;;;;;;5.43;2.20;;;;;;;14.66;36.82;99525.47;5097879;28;20053;-95
2022/04/08 14:16:55;;;;;;;3.53;1.63;;;;;;;14.93;35.53;99515.31;5097490;28;20038;-95
2022/04/08 14:19:36;;;;;;;;;;;;;;;;;;;;;
2022/04/08 14:22:18;;;;;;;5.03;1.95;;;;;;;15.21;34.58;99527.53;5099565;28;20034;-95
2022/04/08 14:25:06;;;;;;;3.25;1.60;;;;;;;14.88;35.38;99524.31;5097173;28;20036;-95
2022/04/08 14:28:02;;;;;;;;;;;;;;;;;;;;;
2022/04/08 14:30:42;;;;;;;2.13;1.42;;;;;;;14.90;35.86;99528.41;5114964;28;20043;-95
2022/04/08 14:33:26;;;;;;;3.38;1.88;;;;;;;14.80;36.03;99530.34;5080604;28;20031;-96
2022/04/08 14:36:12;;;;;;;4.45;1.77;;;;;;;14.42;36.88;99527.88;5066959;28;20125;-95
2022/04/08 14:39:08;;;;;;;;;;;;;;;;;;;;;
2022/04/08 14:41:44;;;;;;;;;;;;;;;;;;;;;
2022/04/08 14:44:30;;;;;;;3.22;1.73;;;;;;;16.01;35.50;99515.66;5115753;28;20030;-95
2022/04/08 14:47:03;;;;;;;4.35;1.73;;;;;;;16.96;32.39;99521.72;5096371;28;20028;-95
2022/04/08 14:49:42;;;;;;;3.35;1.55;;;;;;;16.57;32.75;99519.06;5080465;28;20035;-95
2022/04/08 14:52:50;;;;;;;;;;;;;;;;;;;;;
2022/04/08 14:55:37;;;;;;;4.03;1.52;;;;;;;15.49;34.73;99522.50;5112920;28;20039;-93
2022/04/08 14:58:52;;;;;;;3.53;1.40;;;;;;;14.81;36.28;99524.63;5078936;28;20093;-93
2022/04/08 15:01:28;;;;;;;3.17;1.67;;;;;;;13.90;37.51;99535.22;5113401;28;20039;-93
2022/04/08 15:04:07;;;;;;;3.20;1.38;;;;;;;13.60;38.70;99542.22;5079215;28;20024;-92
2022/04/08 15:06:42;;;;;;;3.58;1.55;;;;;;;13.59;38.60;99542.50;5088616;28;20038;-94
2022/04/08 15:09:26;;;;;;;2.38;1.40;;;;;;;13.70;38.65;99544.16;5099952;28;20027;-94
2022/04/08 15:11:55;;;;;;;5.20;2.08;;;;;;;14.36;37.58;99539.91;5083107;28;20463;-93
2022/04/08 15:14:35;;;;;;;3.35;1.60;;;;;;;14.72;37.23;99535.28;5100406;28;20027;-93
2022/04/08 15:20:40;;;;;;;4.15;1.92;;;;;;;14.41;37.27;99553.56;5118059;28;20035;-93
2022/04/08 15:24:19;;;;;;;;;;;;;;;;;;;;;
2022/04/08 15:27:05;;;;;;;4.78;1.60;;;;;;;13.26;39.18;99560.84;5085717;28;20058;-93
2022/04/08 15:30:28;;;;;;;;;;;;;;;;;;;;;
2022/04/08 15:33:37;;;;;;;3.10;1.48;;;;;;;12.32;41.48;99565.91;5118000;28;20037;-93
2022/04/08 15:39:52;;;;;;;;;;;;;;;;;;;;;
2022/04/08 15:42:44;;;;;;;;;;;;;;;;;;;;;
2022/04/08 15:49:37;;;;;;;;;;;;;;;;;;;;;
2022/04/08 16:24:42;;;;;;;;;;;;;;;;;;;;;
2022/04/08 16:31:47;;;;;;;;;;;;;;;;;;;;;
2022/04/08 16:53:48;;;;;;;;;;;;;;;;;;;;;
2022/04/08 16:57:00;;;;;;;3.97;1.52;;;;;;;9.07;47.33;99660.94;4898046;29;20059;-93
2022/04/08 17:00:01;;;;;;;;;;;;;;;;;;;;;
2022/04/08 17:10:22;;;;;;;;;;;;;;;;;;;;;
2022/04/08 17:20:36;;;;;;;;;;;;;;;;;;;;;
2022/04/08 17:47:54;;;;;;;2.90;1.55;;;;;;;7.40;53.53;99683.97;4850248;29;20048;-95
2022/04/08 18:01:58;;;;;;;3.53;1.33;;;;;;;6.90;55.96;99692.94;4824369;29;20072;-92
2022/04/08 18:05:23;;;;;;;;;;;;;;;;;;;;;
2022/04/08 18:19:30;;;;;;;;;;;;;;;;;;;;;
2022/04/08 18:26:18;;;;;;;;;;;;;;;;;;;;;
2022/04/08 18:29:53;;;;;;;;;;;;;;;;;;;;;